METAR stanice u blizini

 

LHUD - Szeged, Hungary
Ažurirano: 21/05/2019 13:45
NOT Current
Pretežno oblačno
Pretežno oblačno
 Pravac vetra JZ
Vetar: JZ 24 km/h
Temperatura: 21°C
Tačka rose: 10°C
Vlažnost: 50%
Pritisak: 1009 hPa
Oblaci: Pretežno oblačno
Vidljivost: 10 km
2019/05/21 11:45 LHUD 211145Z 22013KT 9999 BKN043 21/10 Q1009
LHKE - Kecskemet, Hungary
Ažurirano: 21/05/2019 22:45
Vedro
Vedro
 Pravac vetra ZJZ
Vetar: ZJZ 11 km/h
Temperatura: 14°C
Tačka rose: 10°C
Vlažnost: 77%
Pritisak: 1009 hPa
Pregled: Vedro
Vidljivost: greater than 10 km
2019/05/21 20:45 LHKE 212045Z 24006KT 210V270 CAVOK 14/10 Q1009 NOSIG RMK BLU
LDOS - Osijek, Croatia
Ažurirano: 21/05/2019 23:00
Delimično oblačno
Delimično oblačno
 Pravac vetra JZ
Vetar: JZ 11 km/h
Temperatura: 14°C
Tačka rose: 12°C
Vlažnost: 88%
Pritisak: 1011 hPa
Oblaci: Delimično oblačno
Vidljivost: 10 km
2019/05/21 21:00 LDOS 212100Z 22006KT 9999 SCT043 14/12 Q1011
 
LYBE - Beograd / Surcin, Serbia
Ažurirano: 21/05/2019 23:00
Delimično oblačno
Delimično oblačno
 Pravac vetra Z
Vetar: Z 7 km/h
Temperatura: 16°C
Tačka rose: 11°C
Vlažnost: 72%
Pritisak: 1012 hPa
Oblaci: Delimično oblačno
Vidljivost: 10 km
2019/05/21 21:00 LYBE 212100Z 27004KT 9999 SCT040 16/11 Q1012 NOSIG
LYVR - Vrsac, Serbia
Ažurirano: 21/05/2019 23:00
Pretežno oblačno
Pretežno oblačno
 Pravac vetra varies
Vetar: varies 2 km/h
Temperatura: 15°C
Tačka rose: 11°C
Vlažnost: 77%
Pritisak: 1012 hPa
Oblaci: Pretežno oblačno
Vidljivost: 10 km
2019/05/21 21:00 LYVR 212100Z VRB01KT 9999 BKN046 15/11 Q1012 NOSIG
LRTR - Timisoara, Romania
Ažurirano: 21/05/2019 23:00
Vedro
Vedro
 Pravac vetra JJI
Vetar: JJI 9 km/h
Temperatura: 13°C
Tačka rose: 13°C
Vlažnost: 100%
Pritisak: 1011 hPa
Pregled: Vedro
Vidljivost: greater than 10 km
2019/05/21 21:00 LRTR 212100Z 15005KT CAVOK 13/13 Q1011 R11/290095 NOSIG